Time;durP1;ratioP1;P1;durP2;ratioP2;P2;SDS_P1;SDS_P2;PMS_P1;PMS_P2;Temp;Humidity;BMP_temperature;BMP_pressure;BME280_temperature;BME280_humidity;BME280_pressure;Samples;Min_cycle;Max_cycle;Signal;HPM_P1;HPM_P2
2023/04/24 00:00:24;;;;;;;1.80;0.60;;;;;;;;;;4996951;28;20215;-74
2023/04/24 00:02:50;;;;;;;1.20;0.87;;;;;;;;;;4997381;28;20232;-74
2023/04/24 00:05:17;;;;;;;0.63;0.63;;;;;;;;;;4996418;28;20234;-74
2023/04/24 00:07:44;;;;;;;1.67;0.80;;;;;;;;;;4996193;28;20222;-74
2023/04/24 00:10:12;;;;;;;1.17;0.70;;;;;;;;;;4995951;28;20199;-74
2023/04/24 00:12:38;;;;;;;0.63;0.60;;;;;;;;;;4996606;28;20704;-74
2023/04/24 00:15:05;;;;;;;1.00;0.80;;;;;;;;;;4996103;28;20227;-74
2023/04/24 00:17:32;;;;;;;1.13;0.83;;;;;;;;;;4995969;28;20208;-74
2023/04/24 00:19:59;;;;;;;1.00;0.60;;;;;;;;;;4995957;28;20209;-74
2023/04/24 00:22:28;;;;;;;0.77;0.67;;;;;;;;;;4995802;28;20686;-74
2023/04/24 00:24:55;;;;;;;1.40;0.63;;;;;;;;;;4995804;28;20576;-74
2023/04/24 00:27:21;;;;;;;1.93;0.77;;;;;;;;;;4995741;28;20209;-74
2023/04/24 00:29:47;;;;;;;0.50;0.50;;;;;;;;;;4996028;28;20207;-74
2023/04/24 00:32:14;;;;;;;0.90;0.70;;;;;;;;;;4995689;28;20228;-74
2023/04/24 00:34:40;;;;;;;0.73;0.63;;;;;;;;;;4995276;28;20218;-74
2023/04/24 00:37:06;;;;;;;1.30;0.60;;;;;;;;;;4995297;28;20232;-74
2023/04/24 00:39:33;;;;;;;3.03;0.60;;;;;;;;;;4995951;28;20224;-74
2023/04/24 00:41:59;;;;;;;2.27;0.53;;;;;;;;;;4995278;28;20211;-74
2023/04/24 00:44:26;;;;;;;1.10;0.50;;;;;;;;;;4995421;28;20295;-74
2023/04/24 00:46:54;;;;;;;1.70;0.50;;;;;;;;;;4995183;28;20238;-74
2023/04/24 00:49:21;;;;;;;0.70;0.70;;;;;;;;;;4995343;28;20608;-74
2023/04/24 00:51:49;;;;;;;1.00;0.53;;;;;;;;;;4995404;28;20232;-74
2023/04/24 00:54:15;;;;;;;2.43;0.60;;;;;;;;;;4995271;28;20208;-74
2023/04/24 00:56:42;;;;;;;1.07;0.70;;;;;;;;;;4995240;28;20229;-74
2023/04/24 00:59:09;;;;;;;2.93;0.70;;;;;;;;;;4995026;28;20258;-74
2023/04/24 01:01:35;;;;;;;0.60;0.60;;;;;;;;;;4995225;28;20227;-74
2023/04/24 01:04:02;;;;;;;1.60;0.60;;;;;;;;;;4995263;28;20220;-74
2023/04/24 01:06:31;;;;;;;1.63;0.60;;;;;;;;;;4995076;28;20235;-74
2023/04/24 01:08:57;;;;;;;1.70;0.60;;;;;;;;;;4994983;28;20270;-74
2023/04/24 01:11:23;;;;;;;1.00;0.53;;;;;;;;;;4994981;28;20251;-74
2023/04/24 01:13:49;;;;;;;0.90;0.70;;;;;;;;;;4994983;28;20205;-74
2023/04/24 01:16:17;;;;;;;0.77;0.53;;;;;;;;;;4995020;28;20227;-74
2023/04/24 01:18:43;;;;;;;0.93;0.50;;;;;;;;;;4994941;28;20205;-74
2023/04/24 01:21:10;;;;;;;0.97;0.70;;;;;;;;;;4994845;28;20574;-74
2023/04/24 01:23:36;;;;;;;2.20;0.80;;;;;;;;;;4994558;28;20212;-74
2023/04/24 01:26:02;;;;;;;1.13;0.80;;;;;;;;;;4994615;28;20228;-74
2023/04/24 01:28:29;;;;;;;2.50;0.90;;;;;;;;;;4994842;28;20206;-74
2023/04/24 01:30:55;;;;;;;1.23;0.70;;;;;;;;;;4994777;28;20213;-74
2023/04/24 01:33:21;;;;;;;1.20;0.80;;;;;;;;;;4994722;28;20300;-74
2023/04/24 01:35:48;;;;;;;0.63;0.60;;;;;;;;;;4994599;28;20234;-74
2023/04/24 01:38:14;;;;;;;2.20;0.70;;;;;;;;;;4994606;28;20219;-74
2023/04/24 01:40:41;;;;;;;0.50;0.50;;;;;;;;;;4994521;28;20211;-74
2023/04/24 01:43:08;;;;;;;1.53;0.43;;;;;;;;;;4994673;28;20231;-74
2023/04/24 01:45:34;;;;;;;2.50;0.93;;;;;;;;;;4994535;28;20258;-74
2023/04/24 01:48:01;;;;;;;1.33;0.70;;;;;;;;;;4994462;28;20207;-74
2023/04/24 01:50:27;;;;;;;1.93;0.80;;;;;;;;;;4994381;28;20208;-74
2023/04/24 01:52:53;;;;;;;1.40;0.77;;;;;;;;;;4994295;28;20228;-74
2023/04/24 01:55:20;;;;;;;1.23;0.63;;;;;;;;;;4994387;28;20227;-74
2023/04/24 01:57:46;;;;;;;1.47;0.60;;;;;;;;;;4994388;28;20213;-74
2023/04/24 02:00:13;;;;;;;2.00;0.60;;;;;;;;;;4993575;28;20210;-74
2023/04/24 02:02:40;;;;;;;1.97;0.70;;;;;;;;;;4994246;28;20199;-74
2023/04/24 02:05:09;;;;;;;0.93;0.70;;;;;;;;;;4994279;28;20234;-74
2023/04/24 02:07:36;;;;;;;1.27;0.70;;;;;;;;;;4994268;28;20204;-74
2023/04/24 02:10:03;;;;;;;1.40;0.60;;;;;;;;;;4994072;28;20195;-74
2023/04/24 02:12:30;;;;;;;1.20;0.63;;;;;;;;;;4994133;28;20260;-74
2023/04/24 02:14:56;;;;;;;2.17;0.77;;;;;;;;;;4994096;28;20217;-74
2023/04/24 02:17:22;;;;;;;1.00;0.70;;;;;;;;;;4994261;28;20210;-74
2023/04/24 02:19:49;;;;;;;0.73;0.57;;;;;;;;;;4993874;28;20218;-74
2023/04/24 02:22:15;;;;;;;0.80;0.50;;;;;;;;;;4994460;28;20227;-74
2023/04/24 02:24:41;;;;;;;0.80;0.60;;;;;;;;;;4994030;28;20210;-74
2023/04/24 02:27:07;;;;;;;0.93;0.60;;;;;;;;;;4993969;28;20247;-74
2023/04/24 02:29:34;;;;;;;0.73;0.73;;;;;;;;;;4994142;28;20207;-74
2023/04/24 02:32:00;;;;;;;1.50;0.60;;;;;;;;;;4993989;28;20237;-74
2023/04/24 02:34:26;;;;;;;1.93;0.60;;;;;;;;;;4993876;28;20216;-74
2023/04/24 02:36:53;;;;;;;0.60;0.50;;;;;;;;;;4992026;28;20738;-74
2023/04/24 02:39:19;;;;;;;2.17;0.70;;;;;;;;;;4992145;28;20216;-74
2023/04/24 02:41:46;;;;;;;0.50;0.50;;;;;;;;;;4992314;28;20203;-74
2023/04/24 02:44:12;;;;;;;1.23;0.90;;;;;;;;;;4992677;28;20207;-74
2023/04/24 02:46:41;;;;;;;2.40;0.70;;;;;;;;;;4993065;28;20230;-75
2023/04/24 02:49:07;;;;;;;2.03;0.70;;;;;;;;;;4993285;28;20225;-74
2023/04/24 02:51:33;;;;;;;2.30;0.67;;;;;;;;;;4993457;28;20212;-74
2023/04/24 02:53:59;;;;;;;1.07;0.77;;;;;;;;;;4993832;28;20218;-74
2023/04/24 02:56:26;;;;;;;2.00;0.70;;;;;;;;;;4993743;28;20231;-74
2023/04/24 02:58:52;;;;;;;1.43;0.93;;;;;;;;;;4993949;28;20226;-74
2023/04/24 03:01:18;;;;;;;1.37;0.70;;;;;;;;;;4993665;28;20207;-74
2023/04/24 03:03:45;;;;;;;1.30;0.67;;;;;;;;;;4993610;28;20258;-74
2023/04/24 03:06:11;;;;;;;1.50;0.80;;;;;;;;;;4993948;28;20234;-74
2023/04/24 03:08:37;;;;;;;1.57;0.67;;;;;;;;;;4993400;28;20223;-74
2023/04/24 03:11:03;;;;;;;1.53;0.90;;;;;;;;;;4995092;28;20216;-74
2023/04/24 03:13:30;;;;;;;3.40;1.10;;;;;;;;;;4996606;28;20234;-74
2023/04/24 03:15:56;;;;;;;0.63;0.63;;;;;;;;;;4996703;28;20239;-74
2023/04/24 03:18:22;;;;;;;1.00;0.70;;;;;;;;;;4997085;28;20219;-74
2023/04/24 03:20:48;;;;;;;2.93;1.10;;;;;;;;;;4997223;28;20219;-74
2023/04/24 03:23:15;;;;;;;0.70;0.70;;;;;;;;;;4996602;28;20578;-74
2023/04/24 03:25:42;;;;;;;2.73;0.70;;;;;;;;;;4996636;28;20722;-74
2023/04/24 03:28:08;;;;;;;1.40;0.80;;;;;;;;;;4996778;28;20211;-74
2023/04/24 03:30:35;;;;;;;1.03;0.70;;;;;;;;;;4996823;28;20211;-78
2023/04/24 03:33:01;;;;;;;2.90;1.00;;;;;;;;;;4997811;28;20311;-79
2023/04/24 03:35:27;;;;;;;1.23;0.80;;;;;;;;;;4998104;28;20235;-79
2023/04/24 03:37:54;;;;;;;2.53;0.90;;;;;;;;;;4998870;28;20214;-79
2023/04/24 03:40:20;;;;;;;2.20;0.80;;;;;;;;;;4998282;28;20238;-79
2023/04/24 03:42:46;;;;;;;2.00;0.77;;;;;;;;;;4998136;28;20203;-80
2023/04/24 03:45:12;;;;;;;1.30;0.70;;;;;;;;;;4998354;28;20223;-80
2023/04/24 03:47:39;;;;;;;2.43;0.83;;;;;;;;;;4998166;28;20761;-80
2023/04/24 03:50:05;;;;;;;1.10;0.80;;;;;;;;;;4998121;28;20222;-79
2023/04/24 03:52:32;;;;;;;2.73;0.80;;;;;;;;;;4997905;28;20227;-79
2023/04/24 03:54:58;;;;;;;1.43;0.70;;;;;;;;;;4998270;28;20207;-79
2023/04/24 03:57:24;;;;;;;0.90;0.80;;;;;;;;;;4998156;28;20207;-79
2023/04/24 03:59:51;;;;;;;0.90;0.70;;;;;;;;;;4997792;28;20207;-79
2023/04/24 04:02:17;;;;;;;1.23;0.87;;;;;;;;;;4997766;28;20261;-79
2023/04/24 04:04:43;;;;;;;3.77;0.77;;;;;;;;;;4997838;28;20298;-79
2023/04/24 04:07:11;;;;;;;2.50;0.80;;;;;;;;;;4997570;28;20666;-79
2023/04/24 04:09:37;;;;;;;0.80;0.73;;;;;;;;;;4997748;28;20231;-79
2023/04/24 04:12:03;;;;;;;3.07;0.83;;;;;;;;;;4997676;28;20227;-79
2023/04/24 04:14:29;;;;;;;1.30;0.90;;;;;;;;;;4998495;28;20214;-79
2023/04/24 04:16:56;;;;;;;1.13;1.00;;;;;;;;;;4998103;28;20246;-79
2023/04/24 04:19:22;;;;;;;0.70;0.60;;;;;;;;;;4997996;28;20219;-79
2023/04/24 04:21:52;;;;;;;1.37;0.90;;;;;;;;;;4997622;28;20210;-79
2023/04/24 04:24:18;;;;;;;2.03;0.70;;;;;;;;;;4997640;28;20283;-80
2023/04/24 04:26:46;;;;;;;0.83;0.70;;;;;;;;;;4997786;28;20234;-80
2023/04/24 04:29:13;;;;;;;2.53;0.70;;;;;;;;;;4997650;28;20604;-80
2023/04/24 04:31:39;;;;;;;1.03;0.60;;;;;;;;;;4997289;28;20210;-80
2023/04/24 04:34:05;;;;;;;2.00;0.80;;;;;;;;;;4996735;28;20231;-80
2023/04/24 04:36:32;;;;;;;0.87;0.80;;;;;;;;;;4997272;28;20231;-79
2023/04/24 04:38:59;;;;;;;1.80;0.70;;;;;;;;;;4997593;28;20203;-79
2023/04/24 04:41:26;;;;;;;1.37;1.00;;;;;;;;;;4997295;28;20215;-80
2023/04/24 04:43:52;;;;;;;1.13;1.00;;;;;;;;;;4997427;28;20220;-80
2023/04/24 04:46:18;;;;;;;1.13;1.03;;;;;;;;;;4996965;28;20231;-80
2023/04/24 04:48:45;;;;;;;1.07;0.97;;;;;;;;;;4996850;28;20207;-79
2023/04/24 04:51:12;;;;;;;0.83;0.70;;;;;;;;;;4996702;28;20203;-79
2023/04/24 04:53:38;;;;;;;1.63;0.83;;;;;;;;;;4997437;28;20231;-79
2023/04/24 04:56:05;;;;;;;1.13;0.70;;;;;;;;;;4996818;28;20231;-80
2023/04/24 04:58:31;;;;;;;0.80;0.80;;;;;;;;;;4996973;28;20210;-80
2023/04/24 05:00:58;;;;;;;0.70;0.70;;;;;;;;;;4997008;28;20207;-79
2023/04/24 05:03:24;;;;;;;1.07;0.93;;;;;;;;;;4996576;28;20569;-79
2023/04/24 05:05:50;;;;;;;2.37;0.90;;;;;;;;;;4996844;28;20234;-80
2023/04/24 05:08:17;;;;;;;1.07;0.90;;;;;;;;;;4996746;28;20215;-80
2023/04/24 05:10:43;;;;;;;0.77;0.60;;;;;;;;;;4996959;28;20204;-80
2023/04/24 05:13:09;;;;;;;0.90;0.80;;;;;;;;;;4996999;28;20238;-80
2023/04/24 05:15:35;;;;;;;1.40;0.70;;;;;;;;;;4996584;28;20314;-79
2023/04/24 05:18:02;;;;;;;1.33;0.73;;;;;;;;;;4996871;28;20218;-79
2023/04/24 05:20:28;;;;;;;0.80;0.80;;;;;;;;;;4997137;28;20211;-79
2023/04/24 05:22:54;;;;;;;1.83;0.70;;;;;;;;;;4996953;28;20230;-79
2023/04/24 05:25:21;;;;;;;0.90;0.70;;;;;;;;;;4996579;28;20315;-80
2023/04/24 05:27:47;;;;;;;0.83;0.77;;;;;;;;;;4996948;28;20218;-80
2023/04/24 05:30:13;;;;;;;0.90;0.90;;;;;;;;;;4996691;28;20207;-80
2023/04/24 05:32:40;;;;;;;2.03;1.00;;;;;;;;;;4996276;28;20222;-80
2023/04/24 05:35:06;;;;;;;0.70;0.70;;;;;;;;;;4996803;28;20234;-80
2023/04/24 05:37:33;;;;;;;1.60;0.80;;;;;;;;;;4996973;28;20609;-80
2023/04/24 05:39:59;;;;;;;1.00;0.90;;;;;;;;;;4997024;28;20210;-80
2023/04/24 05:42:25;;;;;;;1.13;0.70;;;;;;;;;;4996397;28;20203;-80
2023/04/24 05:44:53;;;;;;;0.80;0.80;;;;;;;;;;4996392;28;20242;-81
2023/04/24 05:47:21;;;;;;;1.93;0.83;;;;;;;;;;4996179;28;20572;-80
2023/04/24 05:49:47;;;;;;;0.83;0.83;;;;;;;;;;4996709;28;20222;-80
2023/04/24 05:52:13;;;;;;;0.73;0.67;;;;;;;;;;4996121;28;20211;-80
2023/04/24 05:54:40;;;;;;;2.20;0.70;;;;;;;;;;4996504;28;20573;-80
2023/04/24 05:57:07;;;;;;;1.50;1.07;;;;;;;;;;4995875;28;20228;-80
2023/04/24 05:59:37;;;;;;;1.33;0.73;;;;;;;;;;4996350;28;20242;-80
2023/04/24 06:02:03;;;;;;;1.10;1.00;;;;;;;;;;4996696;28;20203;-80
2023/04/24 06:04:30;;;;;;;1.93;0.80;;;;;;;;;;4996223;28;20199;-80
2023/04/24 06:06:56;;;;;;;1.80;0.90;;;;;;;;;;4996312;28;20233;-80
2023/04/24 06:09:23;;;;;;;1.23;1.03;;;;;;;;;;4995766;28;20215;-80
2023/04/24 06:11:50;;;;;;;1.50;1.00;;;;;;;;;;4996003;28;20573;-80
2023/04/24 06:14:16;;;;;;;1.23;1.00;;;;;;;;;;4996145;28;20227;-79
2023/04/24 06:16:43;;;;;;;1.00;1.00;;;;;;;;;;4995397;28;20593;-80
2023/04/24 06:19:09;;;;;;;1.03;0.93;;;;;;;;;;4995709;28;20666;-80
2023/04/24 06:21:35;;;;;;;1.20;1.10;;;;;;;;;;4995724;28;20207;-80
2023/04/24 06:24:02;;;;;;;1.47;1.03;;;;;;;;;;4995374;28;20203;-79
2023/04/24 06:26:28;;;;;;;1.63;1.40;;;;;;;;;;4994094;28;20748;-78
2023/04/24 06:28:55;;;;;;;1.40;1.03;;;;;;;;;;4994208;28;20206;-77
2023/04/24 06:31:21;;;;;;;1.53;1.17;;;;;;;;;;4994442;28;20207;-77
2023/04/24 06:33:48;;;;;;;2.53;1.10;;;;;;;;;;4993978;28;20231;-77
2023/04/24 06:36:15;;;;;;;1.17;0.80;;;;;;;;;;4994194;28;20255;-77
2023/04/24 06:38:41;;;;;;;1.03;1.00;;;;;;;;;;4994182;28;20212;-77
2023/04/24 06:41:08;;;;;;;1.20;1.10;;;;;;;;;;4993740;28;20212;-76
2023/04/24 06:43:34;;;;;;;1.40;1.00;;;;;;;;;;4993813;28;20216;-76
2023/04/24 06:46:03;;;;;;;1.00;0.87;;;;;;;;;;4995159;28;20777;-77
2023/04/24 06:48:29;;;;;;;2.07;1.10;;;;;;;;;;4997498;28;20246;-77
2023/04/24 06:50:55;;;;;;;1.13;1.00;;;;;;;;;;4997361;28;20215;-77
2023/04/24 06:53:22;;;;;;;1.17;0.90;;;;;;;;;;4997716;28;20229;-76
2023/04/24 06:55:48;;;;;;;1.20;1.10;;;;;;;;;;4997074;28;20248;-75
2023/04/24 06:58:15;;;;;;;1.80;1.20;;;;;;;;;;4997351;28;20242;-75
2023/04/24 07:00:42;;;;;;;1.20;1.10;;;;;;;;;;4997247;28;20239;-75
2023/04/24 07:03:08;;;;;;;1.50;1.23;;;;;;;;;;4997089;28;20206;-74
2023/04/24 07:05:35;;;;;;;1.40;1.30;;;;;;;;;;4997085;28;20232;-74
2023/04/24 07:08:01;;;;;;;3.07;1.27;;;;;;;;;;4996676;28;20664;-74
2023/04/24 07:10:28;;;;;;;1.40;1.27;;;;;;;;;;4996583;28;20213;-74
2023/04/24 07:12:55;;;;;;;2.30;1.20;;;;;;;;;;4996784;28;20582;-74
2023/04/24 07:15:22;;;;;;;3.17;1.20;;;;;;;;;;4996766;28;20293;-74
2023/04/24 07:17:48;;;;;;;1.30;1.20;;;;;;;;;;4997644;28;20277;-75
2023/04/24 07:20:15;;;;;;;1.60;1.20;;;;;;;;;;4997027;28;20211;-74
2023/04/24 07:22:41;;;;;;;2.50;1.30;;;;;;;;;;4996881;28;20217;-75
2023/04/24 07:25:08;;;;;;;4.00;1.10;;;;;;;;;;4996784;28;20235;-75
2023/04/24 07:27:35;;;;;;;2.43;1.50;;;;;;;;;;4996583;28;20203;-75
2023/04/24 07:30:02;;;;;;;2.00;1.20;;;;;;;;;;4996540;28;20209;-74
2023/04/24 07:32:28;;;;;;;1.57;1.10;;;;;;;;;;4996965;28;20219;-74
2023/04/24 07:34:55;;;;;;;1.80;1.10;;;;;;;;;;4996520;28;20230;-74
2023/04/24 07:37:21;;;;;;;1.13;1.00;;;;;;;;;;4996057;28;20206;-74
2023/04/24 07:39:47;;;;;;;3.90;1.20;;;;;;;;;;4996354;28;20612;-74
2023/04/24 07:42:13;;;;;;;2.10;0.97;;;;;;;;;;4996734;28;20206;-74
2023/04/24 07:44:40;;;;;;;2.47;1.00;;;;;;;;;;4996715;28;20207;-74
2023/04/24 07:47:06;;;;;;;1.17;1.10;;;;;;;;;;4996180;28;20233;-75
2023/04/24 07:49:34;;;;;;;1.20;0.93;;;;;;;;;;4996678;28;20212;-74
2023/04/24 07:52:01;;;;;;;1.67;0.90;;;;;;;;;;4996428;28;20214;-74
2023/04/24 07:54:28;;;;;;;3.13;1.07;;;;;;;;;;4996112;28;20230;-74
2023/04/24 07:56:54;;;;;;;0.90;0.90;;;;;;;;;;4994730;28;20635;-74
2023/04/24 07:59:20;;;;;;;2.87;1.10;;;;;;;;;;4996198;28;20206;-73
2023/04/24 08:01:47;;;;;;;1.37;0.83;;;;;;;;;;4996178;28;20244;-74
2023/04/24 08:04:13;;;;;;;1.13;0.80;;;;;;;;;;4996177;28;20212;-74
2023/04/24 08:06:39;;;;;;;2.10;0.93;;;;;;;;;;4995854;28;20229;-74
2023/04/24 08:09:06;;;;;;;1.80;0.90;;;;;;;;;;4995635;28;20217;-74
2023/04/24 08:11:32;;;;;;;4.23;1.00;;;;;;;;;;4995765;28;20688;-74
2023/04/24 08:13:59;;;;;;;2.27;0.97;;;;;;;;;;4996141;28;20236;-74
2023/04/24 08:16:26;;;;;;;1.17;1.10;;;;;;;;;;4995234;28;20550;-74
2023/04/24 08:18:52;;;;;;;3.27;1.10;;;;;;;;;;4995826;28;20294;-74
2023/04/24 08:21:20;;;;;;;1.60;0.90;;;;;;;;;;4995770;28;20216;-74
2023/04/24 08:23:46;;;;;;;1.17;1.10;;;;;;;;;;4995670;28;20253;-73
2023/04/24 08:26:13;;;;;;;4.03;1.03;;;;;;;;;;4995453;28;20233;-74
2023/04/24 08:28:39;;;;;;;3.67;1.10;;;;;;;;;;4995290;28;20212;-74
2023/04/24 08:31:05;;;;;;;1.27;1.07;;;;;;;;;;4995042;28;20684;-74
2023/04/24 08:33:34;;;;;;;1.70;1.10;;;;;;;;;;4995518;28;20245;-74
2023/04/24 08:36:04;;;;;;;1.93;0.97;;;;;;;;;;4995616;28;20233;-75
2023/04/24 08:38:30;;;;;;;1.87;1.10;;;;;;;;;;4995567;28;20215;-74
2023/04/24 08:40:57;;;;;;;1.57;1.10;;;;;;;;;;4995579;28;20292;-75
2023/04/24 08:43:24;;;;;;;2.70;1.10;;;;;;;;;;4995235;28;20214;-76
2023/04/24 08:45:50;;;;;;;1.87;0.97;;;;;;;;;;4995254;28;20234;-74
2023/04/24 08:48:17;;;;;;;2.17;1.20;;;;;;;;;;4995410;28;20217;-75
2023/04/24 08:50:44;;;;;;;1.40;0.90;;;;;;;;;;4995493;28;20565;-75
2023/04/24 08:53:11;;;;;;;2.10;1.20;;;;;;;;;;4995604;28;20214;-75
2023/04/24 08:55:38;;;;;;;3.40;1.30;;;;;;;;;;4994890;28;20601;-75
2023/04/24 08:58:04;;;;;;;2.13;1.40;;;;;;;;;;4994990;28;20706;-75
2023/04/24 09:00:31;;;;;;;3.37;1.10;;;;;;;;;;4995307;28;20215;-74
2023/04/24 09:02:58;;;;;;;1.00;0.97;;;;;;;;;;4995201;28;20657;-74
2023/04/24 09:05:24;;;;;;;1.53;1.10;;;;;;;;;;4995540;28;20229;-75
2023/04/24 09:07:54;;;;;;;1.17;1.00;;;;;;;;;;4995157;28;20219;-75
2023/04/24 09:10:21;;;;;;;2.17;1.10;;;;;;;;;;4995384;28;20203;-74
2023/04/24 09:12:47;;;;;;;1.43;1.17;;;;;;;;;;4994444;28;20208;-74
2023/04/24 09:15:13;;;;;;;1.33;1.03;;;;;;;;;;4995245;28;20247;-74
2023/04/24 09:17:40;;;;;;;1.77;1.13;;;;;;;;;;4994960;28;20221;-74
2023/04/24 09:20:06;;;;;;;3.20;1.10;;;;;;;;;;4994805;28;20204;-73
2023/04/24 09:22:33;;;;;;;1.70;1.10;;;;;;;;;;4994939;28;20207;-74
2023/04/24 09:25:17;;;;;;;3.50;1.27;;;;;;;;;;4995158;28;20207;-73
2023/04/24 09:27:44;;;;;;;4.83;0.90;;;;;;;;;;4994807;28;20203;-74
2023/04/24 09:30:11;;;;;;;2.43;1.20;;;;;;;;;;4994600;28;20215;-75
2023/04/24 09:32:37;;;;;;;3.43;0.90;;;;;;;;;;4994976;28;20239;-74
2023/04/24 09:35:11;;;;;;;1.50;1.00;;;;;;;;;;4994615;28;20239;-75
2023/04/24 09:37:42;;;;;;;1.53;1.03;;;;;;;;;;4995102;28;20286;-76
2023/04/24 09:40:12;;;;;;;2.77;1.13;;;;;;;;;;4995059;28;20207;-75
2023/04/24 09:42:39;;;;;;;2.50;1.40;;;;;;;;;;4994808;28;20208;-76
2023/04/24 09:45:09;;;;;;;3.23;1.40;;;;;;;;;;4995125;28;20226;-76
2023/04/24 09:47:39;;;;;;;2.07;1.00;;;;;;;;;;4995274;28;20208;-76
2023/04/24 09:50:12;;;;;;;1.00;0.90;;;;;;;;;;4994852;28;20203;-76
2023/04/24 09:52:45;;;;;;;1.20;1.00;;;;;;;;;;4995113;28;20218;-76
2023/04/24 09:55:12;;;;;;;1.17;1.07;;;;;;;;;;4994454;28;20237;-76
2023/04/24 09:57:47;;;;;;;3.67;0.97;;;;;;;;;;4994480;28;20203;-76
2023/04/24 10:00:14;;;;;;;2.30;1.00;;;;;;;;;;4994650;28;20196;-76
2023/04/24 10:02:40;;;;;;;1.77;1.37;;;;;;;;;;4994681;28;20228;-74
2023/04/24 10:05:07;;;;;;;1.73;1.20;;;;;;;;;;4994023;28;20226;-75
2023/04/24 10:07:33;;;;;;;2.73;0.83;;;;;;;;;;4994127;28;20209;-75
2023/04/24 10:10:00;;;;;;;1.87;0.87;;;;;;;;;;4994275;28;20201;-74
2023/04/24 10:12:28;;;;;;;3.07;0.87;;;;;;;;;;4994075;28;20683;-75
2023/04/24 10:14:55;;;;;;;1.33;0.80;;;;;;;;;;4993749;28;20227;-74
2023/04/24 10:17:21;;;;;;;1.43;1.00;;;;;;;;;;4994274;28;20214;-75
2023/04/24 10:19:48;;;;;;;1.10;1.00;;;;;;;;;;4994162;28;20553;-75
2023/04/24 10:22:16;;;;;;;0.97;0.80;;;;;;;;;;4999324;28;20269;-79
2023/04/24 10:24:43;;;;;;;1.63;0.80;;;;;;;;;;5006900;28;20206;-79
2023/04/24 10:27:10;;;;;;;1.20;0.80;;;;;;;;;;5003764;28;20218;-79
2023/04/24 10:29:36;;;;;;;2.60;1.00;;;;;;;;;;5005011;28;20206;-79
2023/04/24 10:32:02;;;;;;;2.47;1.00;;;;;;;;;;5004328;28;20207;-79
2023/04/24 10:34:29;;;;;;;1.67;1.00;;;;;;;;;;5003448;28;20566;-79
2023/04/24 10:36:57;;;;;;;1.50;1.10;;;;;;;;;;5005521;28;20223;-80
2023/04/24 10:39:24;;;;;;;1.00;0.90;;;;;;;;;;5003441;28;20211;-79
2023/04/24 10:41:50;;;;;;;1.43;1.17;;;;;;;;;;5004394;28;20221;-79
2023/04/24 10:44:17;;;;;;;2.50;0.90;;;;;;;;;;5003624;28;20202;-79
2023/04/24 10:46:47;;;;;;;2.03;1.20;;;;;;;;;;4999559;28;20252;-78
2023/04/24 10:49:13;;;;;;;3.53;1.00;;;;;;;;;;4998566;28;20381;-77
2023/04/24 10:51:50;;;;;;;1.03;0.93;;;;;;;;;;4998229;28;20206;-76
2023/04/24 10:54:23;;;;;;;1.67;1.10;;;;;;;;;;4998431;28;20240;-77
2023/04/24 10:56:50;;;;;;;3.00;1.20;;;;;;;;;;4997616;28;20681;-77
2023/04/24 10:59:24;;;;;;;3.03;1.13;;;;;;;;;;4997925;28;20207;-77
2023/04/24 11:01:55;;;;;;;1.50;1.00;;;;;;;;;;4998116;28;20566;-77
2023/04/24 11:04:30;;;;;;;2.13;1.03;;;;;;;;;;4997959;28;20210;-77
2023/04/24 11:06:56;;;;;;;1.70;1.00;;;;;;;;;;4997923;28;20229;-77
2023/04/24 11:09:22;;;;;;;0.93;0.93;;;;;;;;;;4997898;28;20225;-76
2023/04/24 11:11:48;;;;;;;4.20;1.00;;;;;;;;;;4998163;28;20204;-77
2023/04/24 11:14:15;;;;;;;4.63;1.20;;;;;;;;;;4997809;28;20229;-76
2023/04/24 11:16:45;;;;;;;1.43;1.00;;;;;;;;;;4997959;28;20231;-78
2023/04/24 11:19:12;;;;;;;3.37;1.13;;;;;;;;;;4997636;28;20208;-74
2023/04/24 11:21:46;;;;;;;4.43;1.17;;;;;;;;;;4997273;28;20300;-74
2023/04/24 11:24:31;;;;;;;2.60;1.20;;;;;;;;;;4997005;28;20222;-73
2023/04/24 11:27:06;;;;;;;1.37;0.87;;;;;;;;;;4996964;28;20279;-74
2023/04/24 11:29:39;;;;;;;6.00;1.30;;;;;;;;;;4996896;28;20556;-74
2023/04/24 11:32:25;;;;;;;1.83;1.10;;;;;;;;;;4996442;28;20220;-74
2023/04/24 11:35:00;;;;;;;1.77;1.10;;;;;;;;;;4997053;28;20234;-74
2023/04/24 11:37:46;;;;;;;2.73;1.33;;;;;;;;;;4996458;28;20246;-74
2023/04/24 11:40:13;;;;;;;1.40;1.10;;;;;;;;;;4997101;28;20222;-74
2023/04/24 11:42:49;;;;;;;3.43;1.13;;;;;;;;;;4996390;28;20207;-74
2023/04/24 11:45:22;;;;;;;1.43;0.97;;;;;;;;;;4996541;28;20219;-74
2023/04/24 11:47:48;;;;;;;2.00;1.10;;;;;;;;;;4997566;28;20211;-74
2023/04/24 11:50:15;;;;;;;1.43;0.80;;;;;;;;;;4996733;28;20578;-74
2023/04/24 11:52:42;;;;;;;2.07;1.10;;;;;;;;;;4996675;28;20723;-74
2023/04/24 11:55:24;;;;;;;2.33;1.10;;;;;;;;;;4996406;28;20703;-74
2023/04/24 11:57:50;;;;;;;1.10;1.03;;;;;;;;;;4996698;28;20193;-74
2023/04/24 12:00:21;;;;;;;1.80;0.90;;;;;;;;;;4996425;28;20215;-73
2023/04/24 12:02:48;;;;;;;0.80;0.80;;;;;;;;;;4996425;28;20213;-74
2023/04/24 12:05:20;;;;;;;1.80;0.87;;;;;;;;;;4996331;28;20224;-74
2023/04/24 12:07:47;;;;;;;1.10;0.80;;;;;;;;;;4995502;28;20642;-74
2023/04/24 12:10:14;;;;;;;1.10;0.90;;;;;;;;;;4996080;28;20607;-74
2023/04/24 12:12:40;;;;;;;1.10;1.00;;;;;;;;;;4996175;28;20222;-74
2023/04/24 12:15:08;;;;;;;2.93;1.23;;;;;;;;;;4996080;28;20238;-75
2023/04/24 12:17:36;;;;;;;1.97;1.10;;;;;;;;;;4997000;28;20214;-74
2023/04/24 12:20:07;;;;;;;3.50;1.37;;;;;;;;;;4995871;28;20207;-74
2023/04/24 12:22:54;;;;;;;3.70;1.13;;;;;;;;;;4995645;28;20681;-74
2023/04/24 12:25:21;;;;;;;0.90;0.90;;;;;;;;;;4995910;28;20301;-74
2023/04/24 12:27:52;;;;;;;1.30;1.00;;;;;;;;;;4995818;28;20209;-74
2023/04/24 12:30:19;;;;;;;1.20;1.03;;;;;;;;;;4995933;28;20197;-74
2023/04/24 12:32:49;;;;;;;2.07;1.10;;;;;;;;;;4995920;28;20215;-74
2023/04/24 12:35:20;;;;;;;4.00;1.13;;;;;;;;;;4995580;28;20278;-74
2023/04/24 12:37:46;;;;;;;3.90;0.93;;;;;;;;;;4996004;28;20195;-73
2023/04/24 12:40:13;;;;;;;2.60;1.20;;;;;;;;;;4996232;28;20301;-74
2023/04/24 12:42:46;;;;;;;2.07;1.10;;;;;;;;;;4995167;28;20296;-74
2023/04/24 12:45:14;;;;;;;2.43;1.10;;;;;;;;;;4995354;28;20230;-74
2023/04/24 12:47:40;;;;;;;2.00;0.90;;;;;;;;;;4995694;28;20217;-75
2023/04/24 12:50:10;;;;;;;0.83;0.83;;;;;;;;;;4995652;28;20207;-74
2023/04/24 12:52:37;;;;;;;1.37;0.90;;;;;;;;;;4995618;28;20206;-74
2023/04/24 12:55:04;;;;;;;1.13;1.03;;;;;;;;;;4996082;28;20329;-74
2023/04/24 12:57:31;;;;;;;1.43;1.10;;;;;;;;;;4995351;28;20219;-74
2023/04/24 13:00:00;;;;;;;1.50;1.23;;;;;;;;;;4995456;28;20576;-73
2023/04/24 13:02:29;;;;;;;4.07;1.50;;;;;;;;;;4995401;28;20213;-74
2023/04/24 13:04:56;;;;;;;3.97;1.13;;;;;;;;;;4995091;28;20244;-74
2023/04/24 13:07:22;;;;;;;1.87;1.10;;;;;;;;;;4995755;28;20250;-74
2023/04/24 13:09:49;;;;;;;1.53;1.00;;;;;;;;;;4995256;28;20193;-74
2023/04/24 13:12:15;;;;;;;1.10;0.93;;;;;;;;;;4995374;28;20234;-74
2023/04/24 13:14:41;;;;;;;1.90;1.07;;;;;;;;;;4995352;28;20235;-74
2023/04/24 13:17:09;;;;;;;1.13;1.07;;;;;;;;;;4995423;28;20234;-74
2023/04/24 13:19:39;;;;;;;1.43;1.10;;;;;;;;;;4995039;28;20669;-74
2023/04/24 13:22:05;;;;;;;1.40;1.30;;;;;;;;;;4995555;28;20207;-74
2023/04/24 13:24:32;;;;;;;3.57;1.37;;;;;;;;;;4995287;28;20215;-74
2023/04/24 13:26:58;;;;;;;3.43;1.67;;;;;;;;;;4994929;28;20224;-75
2023/04/24 13:29:24;;;;;;;3.77;1.80;;;;;;;;;;4995539;28;20242;-74
2023/04/24 13:31:51;;;;;;;3.13;1.40;;;;;;;;;;4994458;28;20224;-74
2023/04/24 13:34:18;;;;;;;1.73;1.57;;;;;;;;;;4995048;28;20204;-74
2023/04/24 13:36:44;;;;;;;7.70;1.60;;;;;;;;;;4994987;28;20229;-76
2023/04/24 13:39:11;;;;;;;1.13;1.10;;;;;;;;;;4995634;28;20206;-77
2023/04/24 13:41:37;;;;;;;1.57;1.47;;;;;;;;;;4995342;28;20231;-76
2023/04/24 13:44:04;;;;;;;1.37;1.17;;;;;;;;;;4995456;28;20210;-77
2023/04/24 13:46:30;;;;;;;1.30;1.20;;;;;;;;;;4994845;28;20234;-77
2023/04/24 13:48:57;;;;;;;1.40;1.30;;;;;;;;;;4995360;28;20216;-76
2023/04/24 13:51:26;;;;;;;7.63;2.00;;;;;;;;;;4995218;28;20248;-76
2023/04/24 13:53:53;;;;;;;3.07;1.50;;;;;;;;;;4994767;28;20268;-76
2023/04/24 13:56:20;;;;;;;1.83;1.23;;;;;;;;;;4994528;28;20317;-76
2023/04/24 13:58:46;;;;;;;1.33;0.80;;;;;;;;;;4995055;28;20208;-76
2023/04/24 14:01:12;;;;;;;1.53;0.90;;;;;;;;;;4995133;28;20216;-74
2023/04/24 14:03:39;;;;;;;1.10;1.00;;;;;;;;;;4994663;28;20233;-74
2023/04/24 14:06:06;;;;;;;0.90;0.90;;;;;;;;;;4994472;28;20331;-74
2023/04/24 14:08:32;;;;;;;0.97;0.90;;;;;;;;;;4994327;28;20217;-74
2023/04/24 14:10:58;;;;;;;1.13;0.90;;;;;;;;;;4994730;28;20297;-74
2023/04/24 14:13:24;;;;;;;1.00;1.00;;;;;;;;;;4994378;28;20208;-74
2023/04/24 14:15:52;;;;;;;0.90;0.90;;;;;;;;;;4994102;28;20242;-73
2023/04/24 14:18:18;;;;;;;2.70;1.20;;;;;;;;;;4994222;28;20221;-75
2023/04/24 14:20:45;;;;;;;2.37;1.10;;;;;;;;;;4994200;28;20216;-74
2023/04/24 14:23:11;;;;;;;1.47;1.00;;;;;;;;;;4994138;28;20206;-73
2023/04/24 14:25:37;;;;;;;1.80;0.87;;;;;;;;;;4994254;28;20238;-74
2023/04/24 14:28:03;;;;;;;1.07;1.00;;;;;;;;;;4994252;28;20210;-74
2023/04/24 14:30:30;;;;;;;1.40;1.10;;;;;;;;;;4994459;28;20210;-74
2023/04/24 14:32:56;;;;;;;1.17;1.17;;;;;;;;;;4993914;28;20203;-73
2023/04/24 14:35:23;;;;;;;1.37;1.10;;;;;;;;;;4994328;28;20244;-73
2023/04/24 14:37:49;;;;;;;1.30;1.13;;;;;;;;;;4994044;28;20206;-76
2023/04/24 14:40:15;;;;;;;2.03;1.40;;;;;;;;;;4994127;28;20265;-72
2023/04/24 14:42:42;;;;;;;2.23;1.37;;;;;;;;;;4993875;28;20214;-72